createdAt,value
2017-09-20T00:00:05.796Z,94.10
2017-09-20T00:02:34.298Z,94.00
2017-09-20T00:05:02.723Z,94.10
2017-09-20T00:07:31.126Z,94.20
2017-09-20T00:09:59.569Z,94.30
2017-09-20T00:12:28.750Z,94.10
2017-09-20T00:14:57.171Z,94.00
2017-09-20T00:17:25.683Z,94.00
2017-09-20T00:19:54.123Z,94.10
2017-09-20T00:22:22.595Z,94.20
2017-09-20T00:24:51.076Z,94.20
2017-09-20T00:27:19.539Z,94.30
2017-09-20T00:29:48.722Z,94.50
2017-09-20T00:32:17.236Z,94.50
2017-09-20T00:34:45.699Z,94.60
2017-09-20T00:37:14.908Z,94.60
2017-09-20T00:39:44.082Z,94.60
2017-09-20T00:42:12.524Z,94.60
2017-09-20T00:44:46.892Z,94.70
2017-09-20T00:47:16.146Z,94.70
2017-09-20T00:49:44.551Z,94.70
2017-09-20T00:52:13.415Z,95.00
2017-09-20T00:54:41.809Z,94.60
2017-09-20T00:57:10.199Z,94.70
2017-09-20T00:59:38.650Z,94.60
2017-09-20T01:02:07.112Z,94.60
2017-09-20T01:04:35.508Z,94.60
2017-09-20T01:07:03.966Z,94.70
2017-09-20T01:09:32.491Z,94.70
2017-09-20T01:12:00.954Z,94.80
2017-09-20T01:14:29.383Z,94.70
2017-09-20T01:16:58.583Z,94.80
2017-09-20T01:19:27.727Z,94.90
2017-09-20T01:22:14.182Z,94.90
2017-09-20T01:24:43.335Z,95.20
2017-09-20T01:27:11.761Z,95.20
2017-09-20T01:29:41.000Z,95.30
2017-09-20T01:32:09.384Z,95.30
2017-09-20T01:34:37.872Z,95.30
2017-09-20T01:37:06.660Z,95.30
2017-09-20T01:39:35.282Z,95.30
2017-09-20T01:42:04.474Z,95.10
2017-09-20T01:44:32.919Z,95.10
2017-09-20T01:47:01.321Z,95.30
2017-09-20T01:49:30.829Z,95.00
2017-09-20T01:51:59.254Z,95.00
2017-09-20T01:54:27.657Z,95.00
2017-09-20T01:56:56.035Z,94.90
2017-09-20T01:59:24.467Z,95.00
2017-09-20T02:01:53.635Z,95.10
2017-09-20T02:04:22.027Z,95.10
2017-09-20T02:06:50.451Z,95.10
2017-09-20T02:09:18.960Z,95.10
2017-09-20T02:11:47.337Z,95.20
2017-09-20T02:14:15.820Z,95.20
2017-09-20T02:16:44.190Z,95.30
2017-09-20T02:19:12.630Z,95.40
2017-09-20T02:21:41.084Z,95.50
2017-09-20T02:24:09.485Z,95.50
2017-09-20T02:26:38.632Z,95.50
2017-09-20T02:29:07.101Z,95.60
2017-09-20T02:31:35.483Z,95.60
2017-09-20T02:34:03.873Z,95.60
2017-09-20T02:36:32.371Z,95.90
2017-09-20T02:39:01.637Z,95.80
2017-09-20T02:41:30.058Z,95.80
2017-09-20T02:43:59.284Z,95.70
2017-09-20T02:46:28.451Z,95.70
2017-09-20T02:48:56.964Z,95.80
2017-09-20T02:51:25.472Z,95.70
2017-09-20T02:53:54.143Z,95.70
2017-09-20T02:56:22.533Z,96.10
2017-09-20T02:58:51.011Z,95.80
2017-09-20T03:01:19.516Z,95.70
2017-09-20T03:03:47.908Z,95.40
2017-09-20T03:06:16.363Z,95.40
2017-09-20T03:08:44.802Z,95.50
2017-09-20T03:11:13.971Z,95.20
2017-09-20T03:13:43.212Z,95.20
2017-09-20T03:16:11.682Z,95.10
2017-09-20T03:18:40.054Z,95.30
2017-09-20T03:21:09.354Z,95.10
2017-09-20T03:23:38.512Z,95.10
2017-09-20T03:26:06.905Z,95.00
2017-09-20T03:28:35.370Z,95.20
2017-09-20T03:31:03.767Z,95.20
2017-09-20T03:33:32.150Z,95.30
2017-09-20T03:36:00.593Z,95.30
2017-09-20T03:38:29.030Z,95.20
2017-09-20T03:40:57.437Z,95.10
2017-09-20T03:43:25.895Z,95.10
2017-09-20T03:45:55.049Z,95.20
2017-09-20T03:48:23.559Z,95.20
2017-09-20T03:50:52.731Z,95.10
2017-09-20T03:53:21.106Z,95.10
2017-09-20T03:55:49.514Z,95.20
2017-09-20T03:58:18.710Z,95.30
2017-09-20T04:00:47.923Z,95.20
2017-09-20T04:03:16.362Z,95.20
2017-09-20T04:05:45.583Z,95.30
2017-09-20T04:08:14.842Z,95.20
2017-09-20T04:10:43.215Z,95.20
2017-09-20T04:13:11.615Z,95.20
2017-09-20T04:15:39.996Z,95.30
2017-09-20T04:18:08.398Z,95.20
2017-09-20T04:20:37.616Z,95.30
2017-09-20T04:23:06.003Z,95.30
2017-09-20T04:25:34.387Z,95.40
2017-09-20T04:28:02.802Z,95.40
2017-09-20T04:30:31.186Z,95.10
2017-09-20T04:32:59.562Z,95.00
2017-09-20T04:35:27.970Z,95.10
2017-09-20T04:37:56.348Z,95.10
2017-09-20T04:40:25.498Z,95.30
2017-09-20T04:42:54.487Z,95.30
2017-09-20T04:45:22.874Z,95.10
2017-09-20T04:47:51.247Z,95.10
2017-09-20T04:50:19.667Z,95.20
2017-09-20T04:52:48.819Z,95.30
2017-09-20T04:55:17.781Z,95.30
2017-09-20T04:57:46.217Z,95.30
2017-09-20T05:00:14.598Z,95.40
2017-09-20T05:02:42.987Z,95.80
2017-09-20T05:05:12.335Z,95.40
2017-09-20T05:07:40.709Z,95.30
2017-09-20T05:10:09.147Z,95.30
2017-09-20T05:12:38.327Z,95.40
2017-09-20T05:15:06.744Z,95.40
2017-09-20T05:17:35.891Z,95.40
2017-09-20T05:20:04.339Z,95.40
2017-09-20T05:22:32.755Z,95.40
2017-09-20T05:25:01.254Z,95.30
2017-09-20T05:27:30.461Z,95.30
2017-09-20T05:29:59.606Z,95.20
2017-09-20T05:32:27.991Z,95.20
2017-09-20T05:34:56.486Z,95.20
2017-09-20T05:37:25.864Z,95.20
2017-09-20T05:39:54.299Z,95.10
2017-09-20T05:42:23.486Z,95.10
2017-09-20T05:44:51.889Z,95.10
2017-09-20T05:47:20.300Z,95.00
2017-09-20T05:49:48.741Z,94.90
2017-09-20T05:52:18.673Z,94.80
2017-09-20T05:54:47.060Z,94.80
2017-09-20T05:57:15.890Z,94.60
2017-09-20T05:59:44.289Z,94.50
2017-09-20T06:02:12.655Z,94.40
2017-09-20T06:04:41.066Z,94.60
2017-09-20T06:07:09.575Z,94.60
2017-09-20T06:09:37.948Z,94.70
2017-09-20T06:12:06.679Z,94.50
2017-09-20T06:14:35.156Z,94.50
2017-09-20T06:17:03.568Z,94.40
2017-09-20T06:19:32.747Z,94.40
2017-09-20T06:22:01.353Z,94.40
2017-09-20T06:24:30.495Z,94.50
2017-09-20T06:26:58.936Z,94.40
2017-09-20T06:29:27.326Z,94.30
2017-09-20T06:31:55.711Z,94.20
2017-09-20T06:34:24.437Z,94.00
2017-09-20T06:36:52.899Z,94.20
2017-09-20T06:39:21.268Z,94.20
2017-09-20T06:41:49.679Z,94.20
2017-09-20T06:44:18.206Z,94.10
2017-09-20T06:46:46.586Z,94.20
2017-09-20T06:49:15.019Z,94.10
2017-09-20T06:51:43.433Z,94.20
2017-09-20T06:54:11.810Z,94.20
2017-09-20T06:56:40.244Z,93.30
2017-09-20T06:59:08.645Z,93.10
2017-09-20T07:01:37.074Z,93.00
2017-09-20T07:04:05.505Z,93.10
2017-09-20T07:06:33.887Z,92.80
2017-09-20T07:09:03.114Z,93.00
2017-09-20T07:11:31.544Z,93.00
2017-09-20T07:14:00.061Z,92.80
2017-09-20T07:16:29.284Z,93.00
2017-09-20T07:18:57.717Z,93.00
2017-09-20T07:21:26.890Z,93.50
2017-09-20T07:23:55.296Z,93.40
2017-09-20T07:26:23.777Z,94.10
2017-09-20T07:28:52.178Z,94.30
2017-09-20T07:31:20.589Z,94.30
2017-09-20T07:33:49.201Z,94.40
2017-09-20T07:36:17.602Z,94.30
2017-09-20T07:38:46.872Z,94.80
2017-09-20T07:41:15.338Z,94.80
2017-09-20T07:43:43.735Z,94.50
2017-09-20T07:46:12.159Z,94.40
2017-09-20T07:48:40.574Z,94.40
2017-09-20T07:51:08.997Z,94.60
2017-09-20T07:53:38.168Z,94.50
2017-09-20T07:56:06.605Z,94.50
2017-09-20T07:58:34.986Z,94.90
2017-09-20T08:01:03.509Z,94.30
2017-09-20T08:03:31.947Z,94.40
2017-09-20T08:06:00.338Z,94.20
2017-09-20T08:08:28.805Z,93.70
2017-09-20T08:10:57.233Z,92.80
2017-09-20T08:13:25.626Z,92.90
2017-09-20T08:15:53.989Z,93.40
2017-09-20T08:18:22.397Z,93.40
2017-09-20T08:20:51.525Z,94.40
2017-09-20T08:23:19.909Z,94.30
2017-09-20T08:25:48.355Z,94.60
2017-09-20T08:28:17.543Z,95.50
2017-09-20T08:30:46.736Z,95.70
2017-09-20T08:33:15.970Z,96.30
2017-09-20T08:35:44.352Z,96.00
2017-09-20T08:38:12.784Z,96.40
2017-09-20T08:40:41.226Z,95.90
2017-09-20T08:43:09.603Z,95.90
2017-09-20T08:45:37.984Z,95.80
2017-09-20T08:48:06.417Z,95.70
2017-09-20T08:50:35.603Z,94.90
2017-09-20T08:53:03.989Z,94.90
2017-09-20T08:55:33.188Z,94.70
2017-09-20T08:58:02.335Z,94.30
2017-09-20T09:00:30.710Z,94.30
2017-09-20T09:02:59.245Z,94.60
2017-09-20T09:05:28.407Z,94.50
2017-09-20T09:07:56.885Z,94.50
2017-09-20T09:10:25.655Z,94.30
2017-09-20T09:12:54.039Z,94.30
2017-09-20T09:15:22.423Z,94.50
2017-09-20T09:17:50.867Z,94.70
2017-09-20T09:20:19.272Z,94.30
2017-09-20T09:22:47.679Z,94.40
2017-09-20T09:25:16.096Z,94.20
2017-09-20T09:27:44.505Z,93.20
2017-09-20T09:30:12.883Z,93.20
2017-09-20T09:32:41.307Z,93.00
2017-09-20T09:35:09.705Z,92.80
2017-09-20T09:37:38.880Z,93.30
2017-09-20T09:40:07.310Z,93.30
2017-09-20T09:42:35.698Z,93.20
2017-09-20T09:45:04.096Z,93.30
2017-09-20T09:47:33.347Z,92.90
2017-09-20T09:50:01.731Z,92.90
2017-09-20T09:52:30.174Z,92.20
2017-09-20T09:54:58.608Z,92.20
2017-09-20T09:57:26.990Z,92.10
2017-09-20T09:59:55.459Z,91.70
2017-09-20T10:02:23.875Z,91.80
2017-09-20T10:04:52.353Z,91.60
2017-09-20T10:07:20.786Z,90.70
2017-09-20T10:09:49.267Z,90.50
2017-09-20T10:12:17.649Z,89.30
2017-09-20T10:14:46.038Z,90.10
2017-09-20T10:17:14.560Z,90.30
2017-09-20T10:19:42.947Z,90.40
2017-09-20T10:22:11.329Z,90.00
2017-09-20T10:24:39.780Z,88.00
2017-09-20T10:27:08.193Z,85.90
2017-09-20T10:29:37.471Z,85.90
2017-09-20T10:32:05.915Z,85.90
2017-09-20T10:34:34.338Z,83.70
2017-09-20T10:37:02.718Z,85.80
2017-09-20T10:39:31.189Z,84.00
2017-09-20T10:41:59.591Z,84.00
2017-09-20T10:44:28.027Z,83.80
2017-09-20T10:46:56.514Z,81.90
2017-09-20T10:49:24.942Z,81.90
2017-09-20T10:51:54.088Z,80.60
2017-09-20T10:54:22.511Z,80.60
2017-09-20T10:56:51.681Z,81.60
2017-09-20T10:59:20.128Z,81.40
2017-09-20T11:01:48.674Z,80.30
2017-09-20T11:04:17.927Z,80.20
2017-09-20T11:06:46.332Z,80.10
2017-09-20T11:09:14.788Z,78.50
2017-09-20T11:11:44.000Z,73.40
2017-09-20T11:14:12.435Z,73.20
2017-09-20T11:16:40.854Z,73.20
2017-09-20T11:19:09.415Z,73.30
2017-09-20T11:21:37.831Z,74.70
2017-09-20T11:24:06.299Z,73.90
2017-09-20T11:26:34.686Z,74.90
2017-09-20T11:29:03.086Z,72.50
2017-09-20T11:31:31.543Z,69.80
2017-09-20T11:33:59.935Z,67.50
2017-09-20T11:36:28.338Z,62.60
2017-09-20T11:38:56.803Z,59.40
2017-09-20T11:41:25.964Z,57.50
2017-09-20T11:43:54.395Z,57.50
2017-09-20T11:46:23.599Z,56.00
2017-09-20T11:48:51.978Z,55.90
2017-09-20T11:51:20.375Z,54.20
2017-09-20T11:53:48.822Z,53.90
2017-09-20T11:56:18.103Z,50.50
2017-09-20T11:58:46.488Z,51.00
2017-09-20T12:01:15.686Z,51.90
2017-09-20T12:03:44.084Z,51.90
2017-09-20T12:06:13.251Z,50.30
2017-09-20T12:08:41.700Z,50.40
2017-09-20T12:11:10.170Z,50.40
2017-09-20T12:13:38.555Z,51.80
2017-09-20T12:16:07.007Z,52.30
2017-09-20T12:18:35.423Z,53.10
2017-09-20T12:21:03.807Z,53.10
2017-09-20T12:23:32.379Z,52.10
2017-09-20T12:26:00.776Z,52.10
2017-09-20T12:28:29.200Z,50.80
2017-09-20T12:30:57.642Z,51.10
2017-09-20T12:33:26.047Z,51.40
2017-09-20T12:35:54.469Z,52.40
2017-09-20T12:38:22.883Z,52.20
2017-09-20T12:40:51.258Z,51.50
2017-09-20T12:43:19.635Z,51.50
2017-09-20T12:45:48.050Z,53.10
2017-09-20T12:48:16.443Z,53.30
2017-09-20T12:50:44.830Z,54.20
2017-09-20T12:53:13.259Z,55.70
2017-09-20T12:55:41.651Z,57.10
2017-09-20T12:58:10.822Z,57.00
2017-09-20T13:00:39.443Z,57.00
2017-09-20T13:03:08.612Z,58.10
2017-09-20T13:05:37.067Z,58.10
2017-09-20T13:08:05.474Z,56.90
2017-09-20T13:10:33.859Z,57.20
2017-09-20T13:13:03.027Z,57.00
2017-09-20T13:15:31.470Z,57.00
2017-09-20T13:17:59.860Z,58.00
2017-09-20T13:20:28.243Z,57.90
2017-09-20T13:22:56.686Z,58.00
2017-09-20T13:25:25.835Z,57.50
2017-09-20T13:27:54.224Z,57.50
2017-09-20T13:30:22.632Z,58.20
2017-09-20T13:32:51.016Z,59.10
2017-09-20T13:35:20.182Z,59.70
2017-09-20T13:37:48.649Z,59.60
2017-09-20T13:40:17.049Z,59.60
2017-09-20T13:42:45.456Z,59.50
2017-09-20T13:45:14.710Z,58.90
2017-09-20T13:47:43.175Z,58.90
2017-09-20T13:50:11.632Z,59.00
2017-09-20T13:52:40.086Z,58.50
2017-09-20T13:55:09.243Z,57.20
2017-09-20T13:57:37.634Z,57.20
2017-09-20T14:00:06.094Z,57.00
2017-09-20T14:02:34.482Z,55.50
2017-09-20T14:05:02.871Z,56.50
2017-09-20T14:07:32.076Z,56.90
2017-09-20T14:10:00.474Z,57.30
2017-09-20T14:12:30.611Z,57.90
2017-09-20T14:14:59.790Z,58.50
2017-09-20T14:17:28.940Z,58.90
2017-09-20T14:19:57.348Z,58.90
2017-09-20T14:22:25.770Z,58.70
2017-09-20T14:24:54.155Z,59.10
2017-09-20T14:27:22.665Z,59.20
2017-09-20T14:29:51.076Z,59.70
2017-09-20T14:32:19.458Z,61.10
2017-09-20T14:34:47.849Z,61.90
2017-09-20T14:37:17.031Z,65.90
2017-09-20T14:39:45.462Z,65.90
2017-09-20T14:42:13.848Z,66.60
2017-09-20T14:44:42.278Z,68.20
2017-09-20T14:47:10.690Z,69.20
2017-09-20T14:49:39.074Z,68.50
2017-09-20T14:52:07.572Z,65.80
2017-09-20T14:54:35.955Z,65.80
2017-09-20T14:57:04.448Z,66.30
2017-09-20T14:59:32.916Z,67.30
2017-09-20T15:02:01.289Z,68.60
2017-09-20T15:04:29.714Z,70.80
2017-09-20T15:06:58.898Z,72.10
2017-09-20T15:09:27.288Z,72.00
2017-09-20T15:11:55.707Z,72.60
2017-09-20T15:14:24.302Z,71.90
2017-09-20T15:16:52.684Z,71.50
2017-09-20T15:19:21.193Z,71.10
2017-09-20T15:21:49.600Z,70.10
2017-09-20T15:24:18.749Z,70.30
2017-09-20T15:26:47.237Z,70.30
2017-09-20T15:29:15.938Z,68.80
2017-09-20T15:31:44.327Z,67.60
2017-09-20T15:34:12.784Z,65.80
2017-09-20T15:36:41.468Z,66.40
2017-09-20T15:39:09.858Z,64.90
2017-09-20T15:41:38.249Z,63.00
2017-09-20T15:44:06.658Z,62.80
2017-09-20T15:46:35.034Z,62.90
2017-09-20T15:49:03.410Z,62.90
2017-09-20T15:51:31.876Z,64.20
2017-09-20T15:54:01.042Z,64.00
2017-09-20T15:56:29.417Z,64.00
2017-09-20T15:58:57.839Z,63.90
2017-09-20T16:01:26.992Z,64.20
2017-09-20T16:03:55.409Z,64.30
2017-09-20T16:06:23.853Z,64.70
2017-09-20T16:08:52.248Z,62.90
2017-09-20T16:11:20.738Z,60.80
2017-09-20T16:13:49.302Z,60.80
2017-09-20T16:16:17.818Z,59.40
2017-09-20T16:18:46.963Z,59.20
2017-09-20T16:21:15.409Z,59.20
2017-09-20T16:23:43.830Z,59.40
2017-09-20T16:26:12.211Z,60.30
2017-09-20T16:28:40.651Z,61.30
2017-09-20T16:31:09.171Z,61.10
2017-09-20T16:33:37.577Z,62.60
2017-09-20T16:36:06.081Z,62.90
2017-09-20T16:38:34.523Z,63.80
2017-09-20T16:41:02.962Z,64.90
2017-09-20T16:43:31.451Z,65.70
2017-09-20T16:45:59.841Z,68.50
2017-09-20T16:48:28.222Z,69.10
2017-09-20T16:50:56.719Z,69.40
2017-09-20T16:53:25.240Z,70.50
2017-09-20T16:55:54.381Z,75.90
2017-09-20T16:58:23.108Z,75.90
2017-09-20T17:00:52.338Z,78.90
2017-09-20T17:03:20.743Z,78.80
2017-09-20T17:05:49.226Z,79.60
2017-09-20T17:08:17.669Z,80.50
2017-09-20T17:10:46.071Z,80.50
2017-09-20T17:13:14.616Z,81.50
2017-09-20T17:15:43.800Z,82.30
2017-09-20T17:18:12.207Z,82.30
2017-09-20T17:20:40.647Z,84.30
2017-09-20T17:23:09.038Z,82.80
2017-09-20T17:25:37.426Z,82.90
2017-09-20T17:28:06.647Z,84.00
2017-09-20T17:30:35.066Z,84.00
2017-09-20T17:33:03.456Z,85.20
2017-09-20T17:35:31.901Z,86.10
2017-09-20T17:38:00.290Z,86.30
2017-09-20T17:40:28.985Z,87.00
2017-09-20T17:42:57.517Z,87.90
2017-09-20T17:45:26.757Z,89.20
2017-09-20T17:47:55.275Z,89.20
2017-09-20T17:50:23.735Z,89.80
2017-09-20T17:52:52.118Z,90.30
2017-09-20T17:55:20.500Z,90.40
2017-09-20T17:57:48.913Z,90.40
2017-09-20T18:00:18.137Z,90.30
2017-09-20T18:02:46.519Z,90.20
2017-09-20T18:05:14.943Z,90.00
2017-09-20T18:07:43.326Z,89.90
2017-09-20T18:10:11.759Z,89.90
2017-09-20T18:12:40.182Z,89.70
2017-09-20T18:15:08.562Z,90.00
2017-09-20T18:17:37.041Z,90.10
2017-09-20T18:20:05.539Z,89.60
2017-09-20T18:22:34.704Z,89.40
2017-09-20T18:25:03.402Z,89.40
2017-09-20T18:27:31.838Z,90.00
2017-09-20T18:30:00.214Z,88.50
2017-09-20T18:32:28.651Z,88.30
2017-09-20T18:34:57.842Z,88.10
2017-09-20T18:37:26.408Z,88.00
2017-09-20T18:39:54.813Z,87.60
2017-09-20T18:42:24.055Z,87.70
2017-09-20T18:44:52.548Z,87.70
2017-09-20T18:47:20.997Z,87.80
2017-09-20T18:49:49.420Z,87.30
2017-09-20T18:52:17.824Z,87.50
2017-09-20T18:54:46.203Z,87.80
2017-09-20T18:57:15.409Z,88.20
2017-09-20T18:59:44.575Z,88.20
2017-09-20T19:02:12.955Z,88.20
2017-09-20T19:04:41.520Z,87.80
2017-09-20T19:07:09.936Z,87.60
2017-09-20T19:09:39.096Z,88.90
2017-09-20T19:12:07.578Z,88.30
2017-09-20T19:14:35.978Z,88.30
2017-09-20T19:17:04.518Z,87.70
2017-09-20T19:19:32.988Z,88.00
2017-09-20T19:22:01.424Z,88.30
2017-09-20T19:24:29.826Z,88.30
2017-09-20T19:26:59.044Z,87.90
2017-09-20T19:29:27.459Z,87.80
2017-09-20T19:31:56.622Z,87.10
2017-09-20T19:34:25.079Z,87.20
2017-09-20T19:36:54.226Z,86.30
2017-09-20T19:39:22.607Z,86.20
2017-09-20T19:41:51.057Z,86.70
2017-09-20T19:44:19.475Z,86.90
2017-09-20T19:46:47.877Z,86.90
2017-09-20T19:49:16.296Z,86.20
2017-09-20T19:51:44.693Z,86.40
2017-09-20T19:54:13.156Z,86.90
2017-09-20T19:56:41.622Z,87.00
2017-09-20T19:59:10.796Z,87.80
2017-09-20T20:01:39.929Z,87.90
2017-09-20T20:04:08.543Z,86.50
2017-09-20T20:06:37.368Z,86.90
2017-09-20T20:09:06.095Z,87.10
2017-09-20T20:11:34.926Z,87.30
2017-09-20T20:14:04.913Z,88.10
2017-09-20T20:16:33.707Z,88.10
2017-09-20T20:19:02.388Z,87.40
2017-09-20T20:21:30.832Z,87.80
2017-09-20T20:23:59.616Z,88.90
2017-09-20T20:26:28.173Z,88.40
2017-09-20T20:28:57.514Z,88.10
2017-09-20T20:31:26.234Z,88.90
2017-09-20T20:33:54.737Z,88.40
2017-09-20T20:36:23.122Z,89.30
2017-09-20T20:38:51.683Z,88.40
2017-09-20T20:41:20.949Z,87.70
2017-09-20T20:43:49.348Z,87.70
2017-09-20T20:46:17.763Z,87.30
2017-09-20T20:48:46.203Z,88.00
2017-09-20T20:51:14.598Z,88.20
2017-09-20T20:53:43.025Z,88.30
2017-09-20T20:56:12.218Z,90.00
2017-09-20T20:58:41.581Z,89.00
2017-09-20T21:01:10.003Z,88.90
2017-09-20T21:03:39.225Z,87.90
2017-09-20T21:06:07.651Z,87.90
2017-09-20T21:08:36.038Z,88.60
2017-09-20T21:11:04.647Z,89.00
2017-09-20T21:13:33.133Z,90.10
2017-09-20T21:16:01.554Z,89.50
2017-09-20T21:18:29.994Z,88.50
2017-09-20T21:20:58.420Z,88.50
2017-09-20T21:23:26.828Z,88.70
2017-09-20T21:25:56.047Z,88.50
2017-09-20T21:28:24.430Z,88.50
2017-09-20T21:30:52.841Z,88.80
2017-09-20T21:33:21.268Z,88.10
2017-09-20T21:35:50.418Z,88.30
2017-09-20T21:38:18.801Z,88.20
2017-09-20T21:40:47.216Z,87.50
2017-09-20T21:43:16.365Z,89.10
2017-09-20T21:45:44.745Z,89.10
2017-09-20T21:48:13.176Z,88.90
2017-09-20T21:50:42.342Z,88.50
2017-09-20T21:53:10.731Z,88.50
2017-09-20T21:55:39.158Z,89.30
2017-09-20T21:58:07.534Z,90.20
2017-09-20T22:00:35.943Z,90.30
2017-09-20T22:03:04.366Z,89.60
2017-09-20T22:05:33.534Z,88.90
2017-09-20T22:08:01.926Z,88.90
2017-09-20T22:10:30.578Z,90.00
2017-09-20T22:12:58.952Z,90.10
2017-09-20T22:15:45.336Z,90.10
2017-09-20T22:18:31.527Z,90.00
2017-09-20T22:21:17.650Z,88.40
2017-09-20T22:24:03.827Z,89.40
2017-09-20T22:26:44.522Z,90.20
2017-09-20T22:29:12.921Z,89.60
2017-09-20T22:31:41.302Z,89.70
2017-09-20T22:34:09.730Z,89.40
2017-09-20T22:36:38.106Z,89.60
2017-09-20T22:39:06.590Z,89.90
2017-09-20T22:41:35.015Z,90.60
2017-09-20T22:44:03.396Z,90.30
2017-09-20T22:46:31.779Z,90.60
2017-09-20T22:49:00.207Z,90.30
2017-09-20T22:51:28.587Z,90.10
2017-09-20T22:53:56.961Z,90.10
2017-09-20T22:56:25.397Z,90.30
2017-09-20T22:58:53.786Z,90.30
2017-09-20T23:01:22.957Z,90.60
2017-09-20T23:03:51.371Z,90.60
2017-09-20T23:06:20.514Z,90.90
2017-09-20T23:08:48.907Z,90.90
2017-09-20T23:11:17.454Z,90.80
2017-09-20T23:13:45.835Z,91.00
2017-09-20T23:16:14.219Z,91.10
2017-09-20T23:18:42.636Z,90.90
2017-09-20T23:21:11.038Z,90.70
2017-09-20T23:23:40.292Z,90.90
2017-09-20T23:26:08.705Z,90.90
2017-09-20T23:28:37.095Z,90.90
2017-09-20T23:31:06.248Z,90.90
2017-09-20T23:33:34.663Z,90.90
2017-09-20T23:36:03.812Z,90.80
2017-09-20T23:38:32.190Z,90.80
2017-09-20T23:41:00.607Z,90.70
2017-09-20T23:43:28.982Z,90.90
2017-09-20T23:45:57.367Z,91.10
2017-09-20T23:48:25.775Z,91.40
2017-09-20T23:50:54.178Z,91.40
2017-09-20T23:53:22.554Z,91.60
2017-09-20T23:55:51.011Z,91.00
2017-09-20T23:58:19.386Z,91.20
